Aérodrome :
LOGIN :

S'inscrire | Disclaimer

   EN    FR    IT 

 










Légende :    VFR   VFR Marginal   IFR   IFR Intensif   IFR Très Intensif
Visi : 
Plafond : 
>= 8 km
>= 3000ft
5 à 8 km
1000 à 3000 ft
1500m à 5 km
500 à 1000 ft
800 à 1500m
200 à 500 ft
< 800m
< 200 ft
Symboles :   Orages  Brouillard  Fortes neiges  Fortes précipitations  Vent > 20 kt
SIGMETs :   Divers  Orages  Givrage  Turbulence  Onde Orograph.  Cendres Volcan.







- Altitude de l'aérodrome : 289 ft
- Code IATA : ZAD


LDZD - Zadar

DERNIER METAR :
  • 222000Z 07011KT 020V110 9999 -RA FEW020 SCT030 OVC050 05/01 Q1006 NOSIG

METARs EXPIRÉS :
  • 221930Z 07014KT 030V110 9999 -RA FEW020 SCT030 BKN050 05/01 Q1006 NOSIG
  • 221900Z 08015KT 030V120 9999 FEW025 SCT050 06/M00 Q1006 NOSIG
  • 221830Z 08013KT 030V140 9999 FEW060 06/M01 Q1006 NOSIG
  • 221800Z 07012KT 030V130 9999 FEW060 06/M01 Q1006 NOSIG
  • 221730Z 07013KT 020V120 9999 SCT050 06/M01 Q1006 NOSIG

TAF TAF LDZD
Valide du 22 à 18h jusqu'au 23 à 18h UTC


221725Z 2218/2318 07015KT 9999 BKN030 TX09/2312Z TN04/2219Z
PROB30
TEMPO 2218/2300 07015G25KT
TEMPO 2300/2315 07015G25KT 5000 RA
PROB30
TEMPO 2300/2315 SHRA FEW027TCU BKN030
Pas de NOTAMs connus pour ce terrain.
2 SIGMETs publiés pour la FIR Zagreb (LDZO) :
 
Turbulence forte
LDZO SIGMET 9 VALID 221900/222200 LDZA
LDZO ZAGREB FIR SEV TURB FCST WI N4535 E01254 - N4540 E01435 - N4404 E01544 - N4412 E01342 - N4535 E01254 SFC/6000FT STNR NC=
Orages noyés dans la masse
LDZO SIGMET 10 VALID 221940/222200 LDZA
LDZO ZAGREB FIR EMBD TS OBS WI N4331 E01432 - N4355 E01525 - N4206 E01825 - N4128 E01818 - N4224 E01617 - N4331 E01432 TOP FL250 STNR NC=



MET'MAP, la Météo Aéronautique d'un coup d'oeil ! - Copyright ORBIFLY Décembre 2007 - Disclaimer

ORBIFLY MET'MAP TEAM :

Programmation & Développement : Alexandra Zaïnal
Conception & Développement : Baudouin d'Aumeries
Co-Programmation & Développement : Marc-Olivier Méhu
Soutien technique & logistique : Manuel Goepfert

Contact : metmap@orbifly.com




SOURCES & CREDITS :

   NOAA